createdAt,value
2019-05-12T09:34:58.193Z,1022.73
2019-05-12T09:35:56.291Z,1022.90
2019-05-12T09:36:59.692Z,1022.95
2019-05-12T09:37:56.274Z,1022.86
2019-05-12T09:39:01.489Z,1022.84
2019-05-12T09:39:57.250Z,1022.83
2019-05-12T09:41:00.771Z,1022.85
2019-05-12T09:41:57.240Z,1022.91
2019-05-12T09:43:00.292Z,1022.92
2019-05-12T09:43:57.225Z,1022.84
2019-05-12T09:45:00.100Z,1022.93
2019-05-12T09:45:57.181Z,1022.86
2019-05-12T09:46:56.184Z,1022.97
2019-05-12T09:47:58.860Z,1022.98
2019-05-12T09:48:57.157Z,1022.92
2019-05-12T09:49:56.167Z,1022.94
2019-05-12T09:51:00.349Z,1022.97
2019-05-12T09:51:57.123Z,1022.94
2019-05-12T09:53:00.864Z,1022.94
2019-05-12T09:53:57.103Z,1022.97
2019-05-12T09:54:56.094Z,1023.07
2019-05-12T09:55:58.500Z,1023.14
2019-05-12T09:56:59.654Z,1023.13
2019-05-12T09:57:56.058Z,1023.20
2019-05-12T09:59:01.542Z,1023.11
2019-05-12T09:59:59.398Z,1023.10
2019-05-12T10:00:56.036Z,1023.07
2019-05-12T10:01:56.026Z,1023.10
2019-05-12T10:02:59.476Z,1023.10
2019-05-12T10:03:56.001Z,1023.10
2019-05-12T10:05:00.581Z,1023.13
2019-05-12T10:07:05.756Z,1023.23
2019-05-12T10:08:05.778Z,1023.18
2019-05-12T10:09:08.771Z,1023.24
2019-05-12T10:10:06.759Z,1023.12
2019-05-12T10:11:10.322Z,1023.13
2019-05-12T10:12:06.721Z,1023.14
2019-05-12T10:13:05.692Z,1023.16
2019-05-12T10:14:10.448Z,1023.16
2019-05-12T10:15:06.670Z,1023.18
2019-05-12T10:16:08.784Z,1023.23
2019-05-12T10:17:06.515Z,1023.21
2019-05-12T10:18:10.859Z,1023.30
2019-05-12T10:19:07.419Z,1023.19
2019-05-12T10:20:07.451Z,1023.23
2019-05-12T10:21:09.982Z,1023.14
2019-05-12T10:22:06.607Z,1023.12
2019-05-12T10:23:10.213Z,1023.15
2019-05-12T10:24:06.585Z,1023.15
2019-05-12T10:25:05.571Z,1023.12
2019-05-12T10:26:09.418Z,1023.10
2019-05-12T10:27:06.569Z,1023.16
2019-05-12T10:28:11.540Z,1023.16
2019-05-12T10:29:16.358Z,1023.10
2019-05-12T10:30:12.162Z,1023.21
2019-05-12T10:31:06.514Z,1023.12
2019-05-12T10:32:05.513Z,1023.09
2019-05-12T10:33:05.497Z,1023.21
2019-05-12T10:34:05.484Z,1023.21
2019-05-12T10:35:05.476Z,1023.15
2019-05-12T10:36:08.417Z,1023.14
2019-05-12T10:37:05.467Z,1023.19
2019-05-12T10:38:10.568Z,1023.11
2019-05-12T10:39:06.439Z,1023.10
2019-05-12T10:40:05.422Z,1023.17
2019-05-12T10:41:05.419Z,1023.13
2019-05-12T10:42:05.412Z,1023.20
2019-05-12T10:43:05.409Z,1023.22
2019-05-12T10:44:05.388Z,1023.24
2019-05-12T10:45:05.379Z,1023.26
2019-05-12T10:46:05.375Z,1023.30
2019-05-12T10:47:05.371Z,1023.26
2019-05-12T10:48:05.352Z,1023.25
2019-05-12T10:49:05.338Z,1023.24
2019-05-12T10:50:05.323Z,1023.28
2019-05-12T10:51:05.321Z,1023.24
2019-05-12T10:52:05.337Z,1023.29
2019-05-12T10:53:09.761Z,1023.29
2019-05-12T10:54:12.518Z,1023.29
2019-05-12T10:55:06.278Z,1023.21
2019-05-12T10:56:05.273Z,1023.28
2019-05-12T10:57:05.259Z,1023.21
2019-05-12T10:58:07.113Z,1023.20
2019-05-12T10:59:05.240Z,1023.07
2019-05-12T11:00:05.229Z,1023.03
2019-05-12T11:01:08.520Z,1022.84
2019-05-12T11:02:05.210Z,1022.78
2019-05-12T11:03:12.143Z,1022.81
2019-05-12T11:04:06.201Z,1022.79
2019-05-12T11:05:05.179Z,1022.71
2019-05-12T11:06:07.768Z,1022.75
2019-05-12T11:07:05.159Z,1022.71
2019-05-12T11:08:10.740Z,1022.74
2019-05-12T11:09:06.165Z,1022.67
2019-05-12T11:10:15.405Z,1022.69
2019-05-12T11:11:06.116Z,1022.70
2019-05-12T11:12:05.177Z,1022.74
2019-05-12T11:13:08.301Z,1022.75
2019-05-12T11:14:05.939Z,1022.82
2019-05-12T11:15:06.803Z,1022.86
2019-05-12T11:16:05.063Z,1022.80
2019-05-12T11:17:07.897Z,1022.88
2019-05-12T11:18:05.042Z,1022.89
2019-05-12T11:19:06.390Z,1022.97
2019-05-12T11:20:06.027Z,1022.93
2019-05-12T11:21:05.007Z,1022.88
2019-05-12T11:22:04.996Z,1022.89
2019-05-12T11:23:04.988Z,1022.86
2019-05-12T11:24:04.971Z,1022.87
2019-05-12T11:25:05.000Z,1022.84
2019-05-12T11:26:04.956Z,1022.83
2019-05-12T11:27:04.939Z,1022.96
2019-05-12T11:28:04.934Z,1022.94
2019-05-12T11:29:04.932Z,1022.86
2019-05-12T11:30:04.908Z,1022.88
2019-05-12T11:31:04.911Z,1022.95
2019-05-12T11:32:04.908Z,1022.93
2019-05-12T11:33:04.883Z,1022.83
2019-05-12T11:34:05.080Z,1022.92
2019-05-12T11:35:04.864Z,1022.93
2019-05-12T11:36:04.857Z,1023.02
2019-05-12T11:37:04.870Z,1023.01
2019-05-12T11:38:04.875Z,1023.02
2019-05-12T11:39:04.817Z,1023.01
2019-05-12T11:40:04.807Z,1022.98
2019-05-12T11:41:04.810Z,1022.95
2019-05-12T11:42:04.783Z,1022.99
2019-05-12T11:43:04.813Z,1023.07
2019-05-12T11:44:04.760Z,1023.03
2019-05-12T11:45:04.754Z,1023.03
2019-05-12T11:46:04.787Z,1022.97
2019-05-12T11:47:04.733Z,1022.99
2019-05-12T11:48:08.352Z,1022.94
2019-05-12T11:49:05.705Z,1022.95
2019-05-12T11:50:09.567Z,1022.99
2019-05-12T11:51:05.702Z,1022.98
2019-05-12T11:52:08.559Z,1022.90
2019-05-12T11:53:05.666Z,1023.09
2019-05-12T11:54:08.977Z,1023.04
2019-05-12T11:55:05.647Z,1022.89
2019-05-12T11:56:07.689Z,1022.87
2019-05-12T11:57:04.635Z,1022.95
2019-05-12T11:58:09.295Z,1023.12
2019-05-12T11:59:05.597Z,1023.11
2019-05-12T12:00:05.440Z,1023.01
2019-05-12T12:01:08.153Z,1023.01
2019-05-12T12:02:04.682Z,1022.98
2019-05-12T12:03:12.482Z,1023.07
2019-05-12T12:04:05.550Z,1023.05
2019-05-12T12:05:04.538Z,1023.11
2019-05-12T12:06:04.537Z,1023.14
2019-05-12T12:07:04.591Z,1023.08
2019-05-12T12:08:04.503Z,1023.09
2019-05-12T12:09:09.180Z,1023.01
2019-05-12T12:10:05.487Z,1022.98
2019-05-12T12:11:04.495Z,1023.05
2019-05-12T12:12:07.292Z,1023.14
2019-05-12T12:13:04.451Z,1023.16
2019-05-12T12:14:08.369Z,1023.17
2019-05-12T12:15:05.429Z,1023.25
2019-05-12T12:16:06.934Z,1023.17
2019-05-12T12:17:05.484Z,1023.16
2019-05-12T12:18:13.264Z,1023.15
2019-05-12T12:19:05.951Z,1023.25
2019-05-12T12:20:04.382Z,1023.15
2019-05-12T12:21:07.712Z,1023.18
2019-05-12T12:22:04.490Z,1023.20
2019-05-12T12:23:10.528Z,1023.24
2019-05-12T12:24:05.330Z,1023.21
2019-05-12T12:25:10.652Z,1023.15
2019-05-12T12:26:05.312Z,1023.22
2019-05-12T12:27:04.383Z,1023.10
2019-05-12T12:28:04.688Z,1023.25
2019-05-12T12:29:04.279Z,1023.23
2019-05-12T12:30:15.754Z,1023.31
2019-05-12T12:31:07.647Z,1023.31
2019-05-12T12:32:04.326Z,1023.28
2019-05-12T12:33:04.490Z,1023.28
2019-05-12T12:34:04.306Z,1023.23
2019-05-12T12:35:07.343Z,1023.17
2019-05-12T12:36:05.209Z,1023.31
2019-05-12T12:37:04.199Z,1023.23
2019-05-12T12:38:04.281Z,1023.22
2019-05-12T12:39:04.284Z,1023.19
2019-05-12T12:40:04.442Z,1023.25
2019-05-12T12:41:04.231Z,1023.31
2019-05-12T12:42:04.490Z,1023.20
2019-05-12T12:43:04.167Z,1023.31
2019-05-12T12:44:04.667Z,1023.32
2019-05-12T12:45:04.374Z,1023.29
2019-05-12T12:46:04.177Z,1023.36
2019-05-12T12:47:04.093Z,1023.40
2019-05-12T12:48:04.100Z,1023.38
2019-05-12T12:49:06.515Z,1023.39
2019-05-12T12:50:05.063Z,1023.31
2019-05-12T12:51:04.196Z,1023.31
2019-05-12T12:52:04.039Z,1023.39
2019-05-12T12:53:04.023Z,1023.35
2019-05-12T12:54:04.015Z,1023.33
2019-05-12T12:55:06.866Z,1023.35
2019-05-12T12:56:04.489Z,1023.37
2019-05-12T12:57:06.553Z,1023.40
2019-05-12T12:58:04.973Z,1023.40
2019-05-12T12:59:10.331Z,1023.36
2019-05-12T13:00:04.981Z,1023.34
2019-05-12T13:01:03.957Z,1023.23
2019-05-12T13:02:05.817Z,1023.43
2019-05-12T13:03:03.929Z,1023.43
2019-05-12T13:04:06.399Z,1023.44
2019-05-12T13:05:03.905Z,1023.48
2019-05-12T13:06:04.785Z,1023.42
2019-05-12T13:07:04.636Z,1023.45
2019-05-12T13:08:04.366Z,1023.35
2019-05-12T13:09:07.781Z,1023.35
2019-05-12T13:10:09.513Z,1023.47
2019-05-12T13:11:04.427Z,1023.39
2019-05-12T13:12:06.020Z,1023.54
2019-05-12T13:13:04.821Z,1023.57
2019-05-12T13:14:04.150Z,1023.53
2019-05-12T13:15:03.964Z,1023.57
2019-05-12T13:16:04.212Z,1023.59
2019-05-12T13:17:04.206Z,1023.60
2019-05-12T13:18:03.839Z,1023.68
2019-05-12T13:19:11.998Z,1023.50
2019-05-12T13:20:04.757Z,1023.68
2019-05-12T13:21:03.808Z,1023.65
2019-05-12T13:22:03.829Z,1023.62
2019-05-12T13:23:04.208Z,1023.66
2019-05-12T13:24:03.737Z,1023.63
2019-05-12T13:25:08.438Z,1023.64
2019-05-12T13:26:04.759Z,1023.60
2019-05-12T13:27:03.687Z,1023.48
2019-05-12T13:28:10.369Z,1023.47
2019-05-12T13:29:04.693Z,1023.56
2019-05-12T13:30:05.359Z,1023.58
2019-05-12T13:31:09.194Z,1023.45
2019-05-12T13:32:04.654Z,1023.52
2019-05-12T13:33:03.674Z,1023.69
2019-05-12T13:34:03.787Z,1023.70
2019-05-12T13:35:04.199Z,1023.68
2019-05-12T13:36:04.316Z,1023.64
2019-05-12T13:37:03.568Z,1023.61
2019-05-12T13:38:03.555Z,1023.57
2019-05-12T13:39:03.544Z,1023.48
2019-05-12T13:40:03.605Z,1023.54
2019-05-12T13:41:04.390Z,1023.62
2019-05-12T13:42:03.505Z,1023.64
2019-05-12T13:43:03.963Z,1023.75
2019-05-12T13:44:03.987Z,1023.72
2019-05-12T13:45:03.763Z,1023.72
2019-05-12T13:46:03.470Z,1023.76
2019-05-12T13:47:03.567Z,1023.80
2019-05-12T13:48:03.972Z,1023.78
2019-05-12T13:49:03.507Z,1023.76
2019-05-12T13:50:04.054Z,1023.74
2019-05-12T13:51:08.421Z,1023.80
2019-05-12T13:52:04.395Z,1023.88
2019-05-12T13:53:08.855Z,1023.86
2019-05-12T13:54:04.455Z,1023.82
2019-05-12T13:55:05.656Z,1023.77
2019-05-12T13:56:04.836Z,1023.78
2019-05-12T13:57:11.636Z,1023.81
2019-05-12T13:58:04.340Z,1023.75
2019-05-12T13:59:04.224Z,1023.75
2019-05-12T14:00:09.056Z,1023.88
2019-05-12T14:01:19.120Z,1023.86
2019-05-12T14:02:04.373Z,1023.88
2019-05-12T14:03:07.983Z,1023.91
2019-05-12T14:04:04.270Z,1023.84
2019-05-12T14:05:07.139Z,1023.85
2019-05-12T14:06:04.248Z,1023.97
2019-05-12T14:07:03.973Z,1023.95
2019-05-12T14:08:03.933Z,1023.93
2019-05-12T14:09:04.276Z,1023.88
2019-05-12T14:10:03.682Z,1023.93
2019-05-12T14:11:03.199Z,1023.86
2019-05-12T14:12:04.380Z,1023.96
2019-05-12T14:13:03.569Z,1024.04
2019-05-12T14:14:11.342Z,1024.05
2019-05-12T14:15:04.224Z,1024.10
2019-05-12T14:16:06.536Z,1024.04
2019-05-12T14:17:04.189Z,1024.04
2019-05-12T14:18:03.468Z,1024.06
2019-05-12T14:19:03.660Z,1024.04
2019-05-12T14:20:04.053Z,1024.16
2019-05-12T14:21:04.212Z,1024.16
2019-05-12T14:22:03.614Z,1024.20
2019-05-12T14:23:03.901Z,1024.21
2019-05-12T14:24:03.130Z,1024.12
2019-05-12T14:25:05.404Z,1024.09
2019-05-12T14:26:07.826Z,1024.14
2019-05-12T14:27:04.185Z,1024.11
2019-05-12T14:28:05.559Z,1024.12
2019-05-12T14:29:04.078Z,1024.06
2019-05-12T14:30:09.850Z,1024.03
2019-05-12T14:31:03.988Z,1024.09
2019-05-12T14:32:05.290Z,1024.19
2019-05-12T14:33:03.396Z,1024.15
2019-05-12T14:34:04.340Z,1024.18
2019-05-12T14:35:04.272Z,1024.23
2019-05-12T14:36:04.080Z,1024.27
2019-05-12T14:37:08.482Z,1024.28
2019-05-12T14:38:03.980Z,1024.29
2019-05-12T14:39:06.237Z,1024.26
2019-05-12T14:40:04.534Z,1024.22
2019-05-12T14:41:09.982Z,1024.23
2019-05-12T14:42:04.367Z,1024.24
2019-05-12T14:43:03.672Z,1024.27
2019-05-12T14:44:03.649Z,1024.26
2019-05-12T14:45:04.700Z,1024.25
2019-05-12T14:46:06.368Z,1024.25
2019-05-12T14:47:03.914Z,1024.25
2019-05-12T14:48:07.486Z,1024.25
2019-05-12T14:49:03.779Z,1024.19
2019-05-12T14:50:03.952Z,1024.24
2019-05-12T14:51:03.452Z,1024.25
2019-05-12T14:52:03.321Z,1024.22
2019-05-12T14:53:03.536Z,1024.19
2019-05-12T14:54:03.984Z,1024.22
2019-05-12T14:55:03.434Z,1024.23
2019-05-12T14:56:03.858Z,1024.25
2019-05-12T14:57:03.502Z,1024.24
2019-05-12T14:58:03.552Z,1024.29
2019-05-12T14:59:03.499Z,1024.29
2019-05-12T15:00:03.965Z,1024.19
2019-05-12T15:01:03.967Z,1024.27
2019-05-12T15:02:05.911Z,1024.24
2019-05-12T15:03:05.597Z,1024.33
2019-05-12T15:04:05.159Z,1024.36
2019-05-12T15:05:06.486Z,1024.46
2019-05-12T15:06:05.821Z,1024.38
2019-05-12T15:07:05.927Z,1024.40
2019-05-12T15:08:04.438Z,1024.43
2019-05-12T15:09:03.346Z,1024.48
2019-05-12T15:10:08.419Z,1024.44
2019-05-12T15:11:04.011Z,1024.41
2019-05-12T15:12:03.626Z,1024.37
2019-05-12T15:13:03.465Z,1024.42
2019-05-12T15:14:03.167Z,1024.51
2019-05-12T15:15:03.692Z,1024.55
2019-05-12T15:16:02.496Z,1024.53
2019-05-12T15:17:03.722Z,1024.46
2019-05-12T15:18:04.668Z,1024.52
2019-05-12T15:19:03.545Z,1024.48
2019-05-12T15:20:06.598Z,1024.50
2019-05-12T15:21:03.678Z,1024.49
2019-05-12T15:22:07.750Z,1024.53
2019-05-12T15:23:03.855Z,1024.50
2019-05-12T15:24:03.946Z,1024.51
2019-05-12T15:25:03.416Z,1024.58
2019-05-12T15:26:04.314Z,1024.53
2019-05-12T15:27:03.825Z,1024.51
2019-05-12T15:28:03.933Z,1024.56
2019-05-12T15:29:05.325Z,1024.54
2019-05-12T15:30:04.187Z,1024.56
2019-05-12T15:31:03.764Z,1024.55
2019-05-12T15:32:03.929Z,1024.64
2019-05-12T15:33:04.414Z,1024.59
2019-05-12T15:34:03.616Z,1024.53
2019-05-12T15:35:02.287Z,1024.54
2019-05-12T15:36:04.475Z,1024.56
2019-05-12T15:37:04.190Z,1024.49
2019-05-12T15:38:03.819Z,1024.50
2019-05-12T15:39:03.432Z,1024.53
2019-05-12T15:40:04.281Z,1024.58
2019-05-12T15:41:04.224Z,1024.60
2019-05-12T15:42:03.481Z,1024.66
2019-05-12T15:43:04.849Z,1024.67
2019-05-12T15:44:03.318Z,1024.67
2019-05-12T15:45:06.615Z,1024.65
2019-05-12T15:46:03.166Z,1024.68
2019-05-12T15:47:03.871Z,1024.68
2019-05-12T15:48:04.066Z,1024.70
2019-05-12T15:49:03.468Z,1024.75
2019-05-12T15:50:04.046Z,1024.78
2019-05-12T15:51:05.262Z,1024.80
2019-05-12T15:52:03.635Z,1024.81
2019-05-12T15:53:03.811Z,1024.81
2019-05-12T15:54:06.454Z,1024.81
2019-05-12T15:55:04.671Z,1024.82
2019-05-12T15:56:05.793Z,1024.74
2019-05-12T15:57:04.169Z,1024.89
2019-05-12T15:58:05.478Z,1024.85
2019-05-12T15:59:02.665Z,1024.80
2019-05-12T16:00:04.768Z,1024.79
2019-05-12T16:01:04.370Z,1024.84
2019-05-12T16:02:12.287Z,1024.83
2019-05-12T16:03:02.977Z,1024.87
2019-05-12T16:04:03.632Z,1024.90
2019-05-12T16:05:04.119Z,1024.92
2019-05-12T16:06:11.742Z,1024.93
2019-05-12T16:07:03.975Z,1024.92
2019-05-12T16:08:03.582Z,1024.92
2019-05-12T16:09:03.942Z,1024.94
2019-05-12T16:10:04.278Z,1024.97
2019-05-12T16:11:04.862Z,1024.93
2019-05-12T16:12:09.364Z,1024.94
2019-05-12T16:13:02.888Z,1024.94
2019-05-12T16:14:01.858Z,1024.94
2019-05-12T16:15:04.480Z,1025.00
2019-05-12T16:16:05.915Z,1025.04
2019-05-12T16:17:05.848Z,1025.02
2019-05-12T16:18:05.743Z,1025.01
2019-05-12T16:19:04.522Z,1024.97
2019-05-12T16:20:03.636Z,1025.03
2019-05-12T16:21:07.282Z,1025.00
2019-05-12T16:22:03.647Z,1025.04
2019-05-12T16:23:03.911Z,1025.06
2019-05-12T16:24:02.995Z,1025.10
2019-05-12T16:25:04.315Z,1025.08
2019-05-12T16:26:10.324Z,1025.11
2019-05-12T16:27:03.637Z,1025.16
2019-05-12T16:28:01.705Z,1025.15
2019-05-12T16:29:03.146Z,1025.12
2019-05-12T16:30:01.681Z,1025.12
2019-05-12T16:31:04.958Z,1025.15
2019-05-12T16:32:04.569Z,1025.15
2019-05-12T16:33:03.647Z,1025.13
2019-05-12T16:34:05.739Z,1025.17
2019-05-12T16:35:06.683Z,1025.13
2019-05-12T16:36:09.372Z,1025.14
2019-05-12T16:37:04.060Z,1025.13
2019-05-12T16:38:06.017Z,1025.14
2019-05-12T16:39:04.259Z,1025.16
2019-05-12T16:40:04.318Z,1025.20
2019-05-12T16:41:03.820Z,1025.17
2019-05-12T16:42:08.200Z,1025.22
2019-05-12T16:43:03.956Z,1025.21
2019-05-12T16:44:07.937Z,1025.23
2019-05-12T16:45:05.928Z,1025.26
2019-05-12T16:46:04.423Z,1025.24
2019-05-12T16:47:04.150Z,1025.32
2019-05-12T16:48:05.642Z,1025.32
2019-05-12T16:49:03.373Z,1025.40
2019-05-12T16:50:08.496Z,1025.38
2019-05-12T16:51:03.304Z,1025.41
2019-05-12T16:52:03.494Z,1025.42
2019-05-12T16:53:01.437Z,1025.42
2019-05-12T16:54:03.727Z,1025.43
2019-05-12T16:55:03.530Z,1025.44
2019-05-12T16:56:03.626Z,1025.46
2019-05-12T16:57:06.353Z,1025.44
2019-05-12T16:58:03.981Z,1025.45
2019-05-12T16:59:07.126Z,1025.53
2019-05-12T17:00:06.864Z,1025.53
2019-05-12T17:01:03.198Z,1025.55
2019-05-12T17:02:07.629Z,1025.52
2019-05-12T17:03:03.777Z,1025.51
2019-05-12T17:04:01.381Z,1025.53
2019-05-12T17:05:06.566Z,1025.59
2019-05-12T17:06:03.552Z,1025.56
2019-05-12T17:07:01.291Z,1025.55
2019-05-12T17:08:01.275Z,1025.59
2019-05-12T17:09:03.219Z,1025.62
2019-05-12T17:10:02.912Z,1025.59
2019-05-12T17:11:21.740Z,1025.64
2019-05-12T17:12:04.846Z,1025.64
2019-05-12T17:13:01.255Z,1025.64
2019-05-12T17:14:04.664Z,1025.68
2019-05-12T17:15:03.873Z,1025.70
2019-05-12T17:16:01.229Z,1025.69
2019-05-12T17:17:03.616Z,1025.67
2019-05-12T17:18:03.814Z,1025.62
2019-05-12T17:19:06.289Z,1025.62
2019-05-12T17:20:04.315Z,1025.69
2019-05-12T17:21:01.153Z,1025.61
2019-05-12T17:22:01.199Z,1025.73
2019-05-12T17:23:03.259Z,1025.73
2019-05-12T17:24:01.094Z,1025.75
2019-05-12T17:25:01.082Z,1025.71
2019-05-12T17:26:03.589Z,1025.68
2019-05-12T17:27:03.514Z,1025.77
2019-05-12T17:28:03.878Z,1025.75
2019-05-12T17:29:01.671Z,1025.78
2019-05-12T17:30:01.029Z,1025.83
2019-05-12T17:31:03.673Z,1025.79
2019-05-12T17:32:01.008Z,1025.79
2019-05-12T17:33:04.563Z,1025.83
2019-05-12T17:34:06.528Z,1025.79
2019-05-12T17:35:04.043Z,1025.80
2019-05-12T17:36:04.994Z,1025.79
2019-05-12T17:37:04.044Z,1025.79
2019-05-12T17:38:00.939Z,1025.86
2019-05-12T17:39:00.955Z,1025.89
2019-05-12T17:40:03.572Z,1025.90
2019-05-12T17:41:01.032Z,1025.95
2019-05-12T17:42:00.902Z,1025.91
2019-05-12T17:43:06.778Z,1025.98
2019-05-12T17:44:04.241Z,1025.97
2019-05-12T17:45:00.880Z,1025.94
2019-05-12T17:46:04.334Z,1025.97
2019-05-12T17:47:00.842Z,1025.97
2019-05-12T17:48:03.843Z,1025.96
2019-05-12T17:49:03.865Z,1025.96
2019-05-12T17:50:06.888Z,1026.02
2019-05-12T17:51:03.305Z,1025.99
2019-05-12T17:52:04.086Z,1026.07
2019-05-12T17:53:01.783Z,1026.15
2019-05-12T17:54:03.663Z,1026.08
2019-05-12T17:55:08.523Z,1026.08
2019-05-12T17:56:01.754Z,1026.13
2019-05-12T17:57:00.741Z,1026.11
2019-05-12T17:58:00.724Z,1026.12
2019-05-12T17:59:00.717Z,1026.12
2019-05-12T18:00:06.176Z,1026.19
2019-05-12T18:01:03.642Z,1026.17
2019-05-12T18:02:05.718Z,1026.23
2019-05-12T18:03:15.669Z,1026.18
2019-05-12T18:04:04.096Z,1026.22
2019-05-12T18:05:06.506Z,1026.25
2019-05-12T18:06:03.568Z,1026.22
2019-05-12T18:07:04.377Z,1026.23
2019-05-12T18:08:04.099Z,1026.24
2019-05-12T18:09:00.610Z,1026.28
2019-05-12T18:10:00.831Z,1026.29
2019-05-12T18:11:00.588Z,1026.34
2019-05-12T18:12:00.571Z,1026.33
2019-05-12T18:13:00.574Z,1026.35
2019-05-12T18:14:02.333Z,1026.35
2019-05-12T18:15:00.542Z,1026.29
2019-05-12T18:16:05.154Z,1026.30
2019-05-12T18:17:04.010Z,1026.32
2019-05-12T18:18:03.661Z,1026.37
2019-05-12T18:19:00.499Z,1026.37
2019-05-12T18:20:01.077Z,1026.37
2019-05-12T18:21:00.471Z,1026.42
2019-05-12T18:22:03.432Z,1026.41
2019-05-12T18:23:01.459Z,1026.42
2019-05-12T18:24:05.987Z,1026.41
2019-05-12T18:25:04.144Z,1026.44
2019-05-12T18:26:05.492Z,1026.52
2019-05-12T18:27:05.017Z,1026.56
2019-05-12T18:28:03.600Z,1026.53
2019-05-12T18:29:00.395Z,1026.55
2019-05-12T18:30:00.395Z,1026.58
2019-05-12T18:31:00.357Z,1026.66
2019-05-12T18:32:00.346Z,1026.66
2019-05-12T18:33:04.457Z,1026.68
2019-05-12T18:34:01.331Z,1026.72
2019-05-12T18:35:00.325Z,1026.79
2019-05-12T18:36:00.310Z,1026.74
2019-05-12T18:37:00.391Z,1026.77
2019-05-12T18:38:00.296Z,1026.77
2019-05-12T18:39:05.607Z,1026.79
2019-05-12T18:40:03.935Z,1026.79
2019-05-12T18:41:00.263Z,1026.82
2019-05-12T18:42:00.238Z,1026.82
2019-05-12T18:43:00.231Z,1026.89
2019-05-12T18:44:00.228Z,1026.86
2019-05-12T18:45:04.630Z,1026.82
2019-05-12T18:46:08.205Z,1026.90
2019-05-12T18:47:01.187Z,1026.91
2019-05-12T18:48:01.213Z,1026.88
2019-05-12T18:49:03.520Z,1026.91
2019-05-12T18:50:01.153Z,1026.90
2019-05-12T18:51:05.072Z,1026.97
2019-05-12T18:52:01.134Z,1027.02
2019-05-12T18:53:00.119Z,1026.99
2019-05-12T18:54:03.596Z,1027.03
2019-05-12T18:55:01.114Z,1027.03
2019-05-12T18:56:00.090Z,1027.05
2019-05-12T18:57:07.007Z,1027.08
2019-05-12T18:58:01.068Z,1027.13
2019-05-12T18:59:05.071Z,1027.14
2019-05-12T19:00:04.246Z,1027.16
2019-05-12T19:01:03.255Z,1027.15
2019-05-12T19:02:00.024Z,1027.18
2019-05-12T19:03:08.019Z,1027.22
2019-05-12T19:04:01.003Z,1027.20
2019-05-12T19:05:00.002Z,1027.25
2019-05-12T19:05:59.981Z,1027.19
2019-05-12T19:06:59.969Z,1027.23
2019-05-12T19:07:59.956Z,1027.25
2019-05-12T19:08:59.951Z,1027.26
2019-05-12T19:09:59.944Z,1027.32
2019-05-12T19:10:59.924Z,1027.30
2019-05-12T19:11:59.917Z,1027.32
2019-05-12T19:13:02.051Z,1027.37
2019-05-12T19:14:00.892Z,1027.43
2019-05-12T19:14:59.898Z,1027.41
2019-05-12T19:16:07.168Z,1027.41
2019-05-12T19:17:02.904Z,1027.46
2019-05-12T19:17:59.849Z,1027.41
2019-05-12T19:18:59.839Z,1027.48
2019-05-12T19:20:01.529Z,1027.43
2019-05-12T19:21:01.198Z,1027.53
2019-05-12T19:22:06.809Z,1027.54
2019-05-12T19:23:00.791Z,1027.52
2019-05-12T19:23:59.790Z,1027.57
2019-05-12T19:25:00.183Z,1027.58
2019-05-12T19:25:59.757Z,1027.59
2019-05-12T19:26:59.791Z,1027.59
2019-05-12T19:28:05.999Z,1027.64
2019-05-12T19:29:00.725Z,1027.67
2019-05-12T19:29:59.720Z,1027.66
2019-05-12T19:31:00.926Z,1027.66
2019-05-12T19:32:00.707Z,1027.73
2019-05-12T19:33:00.027Z,1027.72
2019-05-12T19:34:15.816Z,1027.75
2019-05-12T19:35:00.689Z,1027.69
2019-05-12T19:36:04.543Z,1027.73
2019-05-12T19:37:00.643Z,1027.73
2019-05-12T19:38:01.905Z,1027.75
2019-05-12T19:38:59.628Z,1027.76
2019-05-12T19:40:05.648Z,1027.69
2019-05-12T19:41:01.071Z,1027.82
2019-05-12T19:41:59.592Z,1027.81
2019-05-12T19:43:06.107Z,1027.81
2019-05-12T19:44:00.573Z,1027.85
2019-05-12T19:45:00.132Z,1027.88
2019-05-12T19:46:03.714Z,1027.90
2019-05-12T19:47:00.541Z,1027.87
2019-05-12T19:47:59.518Z,1027.89
2019-05-12T19:48:59.514Z,1027.86
2019-05-12T19:50:05.784Z,1027.86
2019-05-12T19:51:15.956Z,1027.90
2019-05-12T19:52:00.497Z,1027.83
2019-05-12T19:52:59.469Z,1027.87
2019-05-12T19:53:59.458Z,1027.89
2019-05-12T19:54:59.531Z,1027.87
2019-05-12T19:55:59.438Z,1027.90
2019-05-12T19:56:59.670Z,1027.92
2019-05-12T19:58:05.440Z,1027.96
2019-05-12T19:59:00.402Z,1027.97
2019-05-12T19:59:59.394Z,1027.97
2019-05-12T20:01:00.153Z,1027.95
2019-05-12T20:01:59.454Z,1027.94
2019-05-12T20:02:59.359Z,1028.01
2019-05-12T20:03:59.348Z,1027.98
2019-05-12T20:04:59.348Z,1028.01
2019-05-12T20:05:59.323Z,1028.00
2019-05-12T20:06:59.307Z,1027.99
2019-05-12T20:07:59.310Z,1028.02
2019-05-12T20:09:06.103Z,1028.00
2019-05-12T20:10:00.859Z,1028.04
2019-05-12T20:10:59.273Z,1028.07
2019-05-12T20:12:01.076Z,1028.03
2019-05-12T20:13:00.278Z,1028.07
2019-05-12T20:13:59.230Z,1028.11
2019-05-12T20:14:59.374Z,1028.12
2019-05-12T20:15:59.208Z,1028.17
2019-05-12T20:16:59.198Z,1028.14
2019-05-12T20:17:59.192Z,1028.20
2019-05-12T20:18:59.213Z,1028.17
2019-05-12T20:19:59.165Z,1028.20
2019-05-12T20:20:59.159Z,1028.16
2019-05-12T20:21:59.149Z,1028.21
2019-05-12T20:22:59.138Z,1028.20
2019-05-12T20:23:59.145Z,1028.20
2019-05-12T20:24:59.110Z,1028.23
2019-05-12T20:25:59.099Z,1028.19
2019-05-12T20:26:59.088Z,1028.24
2019-05-12T20:28:05.860Z,1028.25
2019-05-12T20:29:00.078Z,1028.29
2019-05-12T20:29:59.106Z,1028.23
2019-05-12T20:31:01.218Z,1028.32
2019-05-12T20:31:59.037Z,1028.25
2019-05-12T20:32:59.031Z,1028.28
2019-05-12T20:34:04.443Z,1028.31
2019-05-12T20:35:00.013Z,1028.26
2019-05-12T20:35:58.989Z,1028.35
2019-05-12T20:37:03.986Z,1028.32
2019-05-12T20:37:59.981Z,1028.31
2019-05-12T20:38:58.955Z,1028.32
2019-05-12T20:40:02.100Z,1028.30
2019-05-12T20:40:59.944Z,1028.35
2019-05-12T20:42:00.622Z,1028.34
2019-05-12T20:43:07.902Z,1028.36
2019-05-12T20:43:59.901Z,1028.39
2019-05-12T20:45:02.494Z,1028.38
2019-05-12T20:45:59.878Z,1028.40
2019-05-12T20:47:01.450Z,1028.40
2019-05-12T20:47:59.859Z,1028.38
2019-05-12T20:49:01.154Z,1028.38
2019-05-12T20:49:59.850Z,1028.46
2019-05-12T20:50:58.826Z,1028.44
2019-05-12T20:52:04.046Z,1028.38
2019-05-12T20:52:59.802Z,1028.48
2019-05-12T20:53:58.791Z,1028.43
2019-05-12T20:54:59.959Z,1028.44
2019-05-12T20:55:58.768Z,1028.42
2019-05-12T20:57:02.649Z,1028.40
2019-05-12T20:57:59.750Z,1028.42
2019-05-12T20:58:58.742Z,1028.41
2019-05-12T21:00:04.917Z,1028.46
2019-05-12T21:01:02.124Z,1028.44
2019-05-12T21:01:59.717Z,1028.49
2019-05-12T21:02:58.696Z,1028.49
2019-05-12T21:03:58.684Z,1028.50
2019-05-12T21:05:00.970Z,1028.52
2019-05-12T21:06:01.571Z,1028.52
2019-05-12T21:06:58.663Z,1028.51
2019-05-12T21:08:03.325Z,1028.52
2019-05-12T21:08:59.626Z,1028.55
2019-05-12T21:09:58.626Z,1028.51
2019-05-12T21:10:58.610Z,1028.51
2019-05-12T21:11:58.641Z,1028.51
2019-05-12T21:12:58.587Z,1028.50
2019-05-12T21:14:00.929Z,1028.51
2019-05-12T21:15:12.646Z,1028.56
2019-05-12T21:15:59.553Z,1028.54
2019-05-12T21:17:03.034Z,1028.49
2019-05-12T21:18:06.699Z,1028.56
2019-05-12T21:19:07.587Z,1028.53
2019-05-12T21:19:59.603Z,1028.56
2019-05-12T21:20:58.551Z,1028.56
2019-05-12T21:21:59.115Z,1028.57
2019-05-12T21:22:58.511Z,1028.69
2019-05-12T21:23:59.519Z,1028.68
2019-05-12T21:24:58.457Z,1028.65
2019-05-12T21:25:58.520Z,1028.67
2019-05-12T21:26:58.441Z,1028.70
2019-05-12T21:28:02.404Z,1028.69
2019-05-12T21:28:59.706Z,1028.74
2019-05-12T21:30:00.690Z,1028.74
2019-05-12T21:30:59.383Z,1028.77
2019-05-12T21:32:07.359Z,1028.72
2019-05-12T21:33:01.245Z,1028.73
2019-05-12T21:33:58.370Z,1028.77
2019-05-12T21:34:59.577Z,1028.79
2019-05-12T21:35:58.329Z,1028.74
2019-05-12T21:37:04.683Z,1028.78
2019-05-12T21:37:59.310Z,1028.83
2019-05-12T21:38:59.487Z,1028.80
2019-05-12T21:39:59.295Z,1028.83
2019-05-12T21:41:02.234Z,1028.77